Decoded Metar for KJWG (WATONGA in OK, USA) (IATA:JWG) | Meteo·Mobile Aviation Weather
aviador You're here:

KJWG Decoded Metar

WATONGA in OK, USA
Report Time2018-11-16 03:15:00
UTC Time2018-11-16 03:43:33
Flight Rules vfr VFR
WindCalm
Visibility9999 m
Phenomena:N/A
Clouds:N/A
Expected CloudBase > 2,400 ft AGL from Temp-Dew spread
CeilingNone
Temp11°C (ISA -1)
Dew Point05°C (67% RH)
AAT9.9°C
QNH1018 hPa
Density Alt1,394 ft
Elevation1,549 ft
Report Wrong Elevation
Raw Report
KJWG 160315Z AUTO 00000KT 10SM CLR 11/05 A3006 RMK AO2
T01100051=

Extra information for KJWG:More info

Metar Taf Metar & Taf Last 4 Metars F.Rules Stats Wind Profile Meteogram Temp Stats Airport Information Weather charts Add Link Nearby VenuesMetar ALERT Operation Metar Decoded Social comments

AIRNAV info for KJWG